sensor_id;sensor_type;location;lat;lon;timestamp;P1;durP1;ratioP1;P2;durP2;ratioP2
71771;SDS011;59606;52.138;5.424;2024-02-21T00:02:21;11.05;;;3.17;;
71771;SDS011;59606;52.138;5.424;2024-02-21T00:04:47;10.27;;;2.47;;
71771;SDS011;59606;52.138;5.424;2024-02-21T00:07:14;9.57;;;3.00;;
71771;SDS011;59606;52.138;5.424;2024-02-21T00:09:41;9.68;;;3.20;;
71771;SDS011;59606;52.138;5.424;2024-02-21T00:12:08;12.30;;;2.42;;
71771;SDS011;59606;52.138;5.424;2024-02-21T00:14:34;10.15;;;2.50;;
71771;SDS011;59606;52.138;5.424;2024-02-21T00:17:01;8.75;;;2.50;;
71771;SDS011;59606;52.138;5.424;2024-02-21T00:19:27;11.75;;;2.95;;
71771;SDS011;59606;52.138;5.424;2024-02-21T00:21:54;9.18;;;2.75;;
71771;SDS011;59606;52.138;5.424;2024-02-21T00:24:20;13.35;;;2.90;;
71771;SDS011;59606;52.138;5.424;2024-02-21T00:26:47;12.20;;;2.72;;
71771;SDS011;59606;52.138;5.424;2024-02-21T00:29:13;7.13;;;2.10;;
71771;SDS011;59606;52.138;5.424;2024-02-21T00:31:40;8.57;;;2.25;;
71771;SDS011;59606;52.138;5.424;2024-02-21T00:34:08;8.77;;;2.28;;
71771;SDS011;59606;52.138;5.424;2024-02-21T00:36:34;10.25;;;3.28;;
71771;SDS011;59606;52.138;5.424;2024-02-21T00:39:01;13.32;;;3.38;;
71771;SDS011;59606;52.138;5.424;2024-02-21T00:41:27;5.90;;;1.90;;
71771;SDS011;59606;52.138;5.424;2024-02-21T00:43:54;7.60;;;2.50;;
71771;SDS011;59606;52.138;5.424;2024-02-21T00:46:20;7.88;;;2.17;;
71771;SDS011;59606;52.138;5.424;2024-02-21T00:48:47;12.63;;;2.10;;
71771;SDS011;59606;52.138;5.424;2024-02-21T00:51:13;10.43;;;2.85;;
71771;SDS011;59606;52.138;5.424;2024-02-21T00:53:40;11.30;;;2.57;;
71771;SDS011;59606;52.138;5.424;2024-02-21T00:56:07;5.80;;;2.22;;
71771;SDS011;59606;52.138;5.424;2024-02-21T00:58:33;8.35;;;1.92;;
71771;SDS011;59606;52.138;5.424;2024-02-21T01:01:00;13.55;;;2.70;;
71771;SDS011;59606;52.138;5.424;2024-02-21T01:03:27;8.02;;;2.40;;
71771;SDS011;59606;52.138;5.424;2024-02-21T01:05:54;10.30;;;2.40;;
71771;SDS011;59606;52.138;5.424;2024-02-21T01:08:20;6.22;;;1.83;;
71771;SDS011;59606;52.138;5.424;2024-02-21T01:10:47;8.15;;;2.25;;
71771;SDS011;59606;52.138;5.424;2024-02-21T01:13:13;12.45;;;2.85;;
71771;SDS011;59606;52.138;5.424;2024-02-21T01:15:40;8.13;;;2.20;;
71771;SDS011;59606;52.138;5.424;2024-02-21T01:18:07;15.53;;;2.53;;
71771;SDS011;59606;52.138;5.424;2024-02-21T01:20:33;7.65;;;2.40;;
71771;SDS011;59606;52.138;5.424;2024-02-21T01:23:00;10.15;;;2.67;;
71771;SDS011;59606;52.138;5.424;2024-02-21T01:25:26;7.70;;;2.45;;
71771;SDS011;59606;52.138;5.424;2024-02-21T01:27:53;13.73;;;3.28;;
71771;SDS011;59606;52.138;5.424;2024-02-21T01:30:19;7.17;;;2.23;;
71771;SDS011;59606;52.138;5.424;2024-02-21T01:32:46;10.25;;;2.72;;
71771;SDS011;59606;52.138;5.424;2024-02-21T01:35:12;10.38;;;3.20;;
71771;SDS011;59606;52.138;5.424;2024-02-21T01:37:39;11.68;;;3.17;;
71771;SDS011;59606;52.138;5.424;2024-02-21T01:40:06;10.00;;;2.78;;
71771;SDS011;59606;52.138;5.424;2024-02-21T01:42:37;15.65;;;3.20;;
71771;SDS011;59606;52.138;5.424;2024-02-21T01:45:04;13.23;;;2.90;;
71771;SDS011;59606;52.138;5.424;2024-02-21T01:47:31;7.50;;;3.10;;
71771;SDS011;59606;52.138;5.424;2024-02-21T01:49:58;12.48;;;3.08;;
71771;SDS011;59606;52.138;5.424;2024-02-21T01:52:25;12.73;;;2.72;;
71771;SDS011;59606;52.138;5.424;2024-02-21T01:54:52;14.90;;;3.77;;
71771;SDS011;59606;52.138;5.424;2024-02-21T01:57:19;7.93;;;3.05;;
71771;SDS011;59606;52.138;5.424;2024-02-21T01:59:45;9.15;;;3.17;;
71771;SDS011;59606;52.138;5.424;2024-02-21T02:02:12;13.15;;;3.47;;
71771;SDS011;59606;52.138;5.424;2024-02-21T02:04:39;8.88;;;3.28;;
71771;SDS011;59606;52.138;5.424;2024-02-21T02:07:06;7.63;;;3.17;;
71771;SDS011;59606;52.138;5.424;2024-02-21T02:09:33;8.73;;;2.95;;
71771;SDS011;59606;52.138;5.424;2024-02-21T02:12:00;6.45;;;2.80;;
71771;SDS011;59606;52.138;5.424;2024-02-21T02:14:28;17.42;;;3.80;;
71771;SDS011;59606;52.138;5.424;2024-02-21T02:16:54;7.90;;;3.13;;
71771;SDS011;59606;52.138;5.424;2024-02-21T02:19:21;14.10;;;3.43;;
71771;SDS011;59606;52.138;5.424;2024-02-21T02:21:52;9.25;;;2.90;;
71771;SDS011;59606;52.138;5.424;2024-02-21T02:24:23;9.60;;;3.30;;
71771;SDS011;59606;52.138;5.424;2024-02-21T02:26:54;9.13;;;3.42;;
71771;SDS011;59606;52.138;5.424;2024-02-21T02:29:20;10.30;;;3.40;;
71771;SDS011;59606;52.138;5.424;2024-02-21T02:31:47;12.87;;;3.53;;
71771;SDS011;59606;52.138;5.424;2024-02-21T02:34:13;14.52;;;4.22;;
71771;SDS011;59606;52.138;5.424;2024-02-21T02:36:40;8.77;;;3.42;;
71771;SDS011;59606;52.138;5.424;2024-02-21T02:39:06;17.77;;;4.38;;
71771;SDS011;59606;52.138;5.424;2024-02-21T02:41:34;12.57;;;4.28;;
71771;SDS011;59606;52.138;5.424;2024-02-21T02:44:02;15.90;;;4.40;;
71771;SDS011;59606;52.138;5.424;2024-02-21T02:46:29;13.90;;;3.30;;
71771;SDS011;59606;52.138;5.424;2024-02-21T02:48:55;11.20;;;4.00;;
71771;SDS011;59606;52.138;5.424;2024-02-21T02:51:22;11.05;;;4.93;;
71771;SDS011;59606;52.138;5.424;2024-02-21T02:53:49;10.88;;;3.30;;
71771;SDS011;59606;52.138;5.424;2024-02-21T02:56:15;10.70;;;3.63;;
71771;SDS011;59606;52.138;5.424;2024-02-21T02:58:42;12.50;;;4.97;;
71771;SDS011;59606;52.138;5.424;2024-02-21T03:01:09;11.43;;;3.67;;
71771;SDS011;59606;52.138;5.424;2024-02-21T03:03:36;7.70;;;3.58;;
71771;SDS011;59606;52.138;5.424;2024-02-21T03:06:03;17.58;;;4.35;;
71771;SDS011;59606;52.138;5.424;2024-02-21T03:08:30;8.27;;;2.87;;
71771;SDS011;59606;52.138;5.424;2024-02-21T03:10:57;9.77;;;3.55;;
71771;SDS011;59606;52.138;5.424;2024-02-21T03:13:24;19.50;;;3.63;;
71771;SDS011;59606;52.138;5.424;2024-02-21T03:15:50;12.30;;;3.45;;
71771;SDS011;59606;52.138;5.424;2024-02-21T03:18:17;11.65;;;4.05;;
71771;SDS011;59606;52.138;5.424;2024-02-21T03:20:43;11.00;;;3.47;;
71771;SDS011;59606;52.138;5.424;2024-02-21T03:23:10;10.57;;;3.47;;
71771;SDS011;59606;52.138;5.424;2024-02-21T03:25:36;10.13;;;3.30;;
71771;SDS011;59606;52.138;5.424;2024-02-21T03:28:03;12.00;;;3.45;;
71771;SDS011;59606;52.138;5.424;2024-02-21T03:30:29;14.63;;;3.60;;
71771;SDS011;59606;52.138;5.424;2024-02-21T03:32:56;10.77;;;3.57;;
71771;SDS011;59606;52.138;5.424;2024-02-21T03:35:22;10.77;;;3.35;;
71771;SDS011;59606;52.138;5.424;2024-02-21T03:37:53;11.18;;;4.18;;
71771;SDS011;59606;52.138;5.424;2024-02-21T03:40:19;13.15;;;3.72;;
71771;SDS011;59606;52.138;5.424;2024-02-21T03:42:46;11.43;;;3.53;;
71771;SDS011;59606;52.138;5.424;2024-02-21T03:45:12;15.23;;;3.73;;
71771;SDS011;59606;52.138;5.424;2024-02-21T03:47:39;17.33;;;4.10;;
71771;SDS011;59606;52.138;5.424;2024-02-21T03:50:06;9.80;;;3.78;;
71771;SDS011;59606;52.138;5.424;2024-02-21T03:52:33;10.50;;;4.03;;
71771;SDS011;59606;52.138;5.424;2024-02-21T03:54:59;14.00;;;4.35;;
71771;SDS011;59606;52.138;5.424;2024-02-21T03:57:26;11.97;;;3.70;;
71771;SDS011;59606;52.138;5.424;2024-02-21T03:59:53;8.77;;;3.92;;
71771;SDS011;59606;52.138;5.424;2024-02-21T04:02:19;12.00;;;3.38;;
71771;SDS011;59606;52.138;5.424;2024-02-21T04:04:46;12.65;;;4.10;;
71771;SDS011;59606;52.138;5.424;2024-02-21T04:07:14;9.20;;;3.28;;
71771;SDS011;59606;52.138;5.424;2024-02-21T04:09:41;12.53;;;4.27;;
71771;SDS011;59606;52.138;5.424;2024-02-21T04:12:08;12.32;;;4.13;;
71771;SDS011;59606;52.138;5.424;2024-02-21T04:14:34;17.05;;;3.58;;
71771;SDS011;59606;52.138;5.424;2024-02-21T04:17:01;12.00;;;3.30;;
71771;SDS011;59606;52.138;5.424;2024-02-21T04:19:28;10.70;;;3.38;;
71771;SDS011;59606;52.138;5.424;2024-02-21T04:21:54;13.03;;;3.27;;
71771;SDS011;59606;52.138;5.424;2024-02-21T04:24:21;11.50;;;3.72;;
71771;SDS011;59606;52.138;5.424;2024-02-21T04:26:47;12.70;;;3.80;;
71771;SDS011;59606;52.138;5.424;2024-02-21T04:29:14;10.30;;;3.63;;
71771;SDS011;59606;52.138;5.424;2024-02-21T04:31:41;10.55;;;3.47;;
71771;SDS011;59606;52.138;5.424;2024-02-21T04:34:07;14.60;;;3.27;;
71771;SDS011;59606;52.138;5.424;2024-02-21T04:36:34;9.85;;;3.85;;
71771;SDS011;59606;52.138;5.424;2024-02-21T04:39:00;10.32;;;3.88;;
71771;SDS011;59606;52.138;5.424;2024-02-21T04:41:27;7.47;;;3.08;;
71771;SDS011;59606;52.138;5.424;2024-02-21T04:43:53;11.30;;;3.75;;
71771;SDS011;59606;52.138;5.424;2024-02-21T04:46:20;11.68;;;3.80;;
71771;SDS011;59606;52.138;5.424;2024-02-21T04:48:46;9.02;;;3.13;;
71771;SDS011;59606;52.138;5.424;2024-02-21T04:51:13;10.68;;;3.38;;
71771;SDS011;59606;52.138;5.424;2024-02-21T04:53:40;11.55;;;3.33;;
71771;SDS011;59606;52.138;5.424;2024-02-21T04:56:07;7.88;;;3.03;;
71771;SDS011;59606;52.138;5.424;2024-02-21T04:58:37;11.97;;;4.07;;
71771;SDS011;59606;52.138;5.424;2024-02-21T05:01:04;11.18;;;3.70;;
71771;SDS011;59606;52.138;5.424;2024-02-21T05:03:30;10.27;;;3.90;;
71771;SDS011;59606;52.138;5.424;2024-02-21T05:05:57;14.70;;;3.50;;
71771;SDS011;59606;52.138;5.424;2024-02-21T05:08:23;10.98;;;4.00;;
71771;SDS011;59606;52.138;5.424;2024-02-21T05:10:50;9.90;;;3.60;;
71771;SDS011;59606;52.138;5.424;2024-02-21T05:13:17;11.25;;;4.72;;
71771;SDS011;59606;52.138;5.424;2024-02-21T05:15:43;14.95;;;4.30;;
71771;SDS011;59606;52.138;5.424;2024-02-21T05:18:10;10.38;;;4.05;;
71771;SDS011;59606;52.138;5.424;2024-02-21T05:20:36;9.35;;;4.45;;
71771;SDS011;59606;52.138;5.424;2024-02-21T05:23:03;11.87;;;3.97;;
71771;SDS011;59606;52.138;5.424;2024-02-21T05:25:30;10.13;;;4.35;;
71771;SDS011;59606;52.138;5.424;2024-02-21T05:27:56;10.18;;;4.80;;
71771;SDS011;59606;52.138;5.424;2024-02-21T05:30:28;10.07;;;4.00;;
71771;SDS011;59606;52.138;5.424;2024-02-21T05:32:54;11.82;;;4.43;;
71771;SDS011;59606;52.138;5.424;2024-02-21T05:35:24;11.70;;;4.47;;
71771;SDS011;59606;52.138;5.424;2024-02-21T05:37:55;10.15;;;3.95;;
71771;SDS011;59606;52.138;5.424;2024-02-21T05:40:21;12.43;;;3.80;;
71771;SDS011;59606;52.138;5.424;2024-02-21T05:42:48;10.55;;;3.90;;
71771;SDS011;59606;52.138;5.424;2024-02-21T05:45:15;10.73;;;4.32;;
71771;SDS011;59606;52.138;5.424;2024-02-21T05:47:41;13.00;;;4.03;;
71771;SDS011;59606;52.138;5.424;2024-02-21T05:50:08;11.65;;;4.28;;
71771;SDS011;59606;52.138;5.424;2024-02-21T05:52:35;11.07;;;3.97;;
71771;SDS011;59606;52.138;5.424;2024-02-21T05:55:02;10.10;;;4.28;;
71771;SDS011;59606;52.138;5.424;2024-02-21T05:57:29;7.13;;;4.07;;
71771;SDS011;59606;52.138;5.424;2024-02-21T05:59:56;9.87;;;5.17;;
71771;SDS011;59606;52.138;5.424;2024-02-21T06:02:22;10.98;;;4.47;;
71771;SDS011;59606;52.138;5.424;2024-02-21T06:04:49;14.43;;;4.50;;
71771;SDS011;59606;52.138;5.424;2024-02-21T06:07:15;11.13;;;4.75;;
71771;SDS011;59606;52.138;5.424;2024-02-21T06:09:42;10.23;;;4.05;;
71771;SDS011;59606;52.138;5.424;2024-02-21T06:12:09;14.23;;;5.00;;
71771;SDS011;59606;52.138;5.424;2024-02-21T06:14:35;9.48;;;4.60;;
71771;SDS011;59606;52.138;5.424;2024-02-21T06:17:03;10.68;;;4.28;;
71771;SDS011;59606;52.138;5.424;2024-02-21T06:19:29;11.98;;;4.40;;
71771;SDS011;59606;52.138;5.424;2024-02-21T06:21:56;15.50;;;4.93;;
71771;SDS011;59606;52.138;5.424;2024-02-21T06:24:23;11.73;;;5.10;;
71771;SDS011;59606;52.138;5.424;2024-02-21T06:26:49;16.17;;;4.97;;
71771;SDS011;59606;52.138;5.424;2024-02-21T06:29:16;13.13;;;5.63;;
71771;SDS011;59606;52.138;5.424;2024-02-21T06:31:42;12.43;;;5.35;;
71771;SDS011;59606;52.138;5.424;2024-02-21T06:34:09;13.48;;;4.80;;
71771;SDS011;59606;52.138;5.424;2024-02-21T06:36:35;12.90;;;5.60;;
71771;SDS011;59606;52.138;5.424;2024-02-21T06:39:02;14.23;;;6.60;;
71771;SDS011;59606;52.138;5.424;2024-02-21T06:41:33;12.45;;;6.10;;
71771;SDS011;59606;52.138;5.424;2024-02-21T06:44:00;18.27;;;6.88;;
71771;SDS011;59606;52.138;5.424;2024-02-21T06:46:27;17.67;;;6.70;;
71771;SDS011;59606;52.138;5.424;2024-02-21T06:48:56;16.00;;;6.80;;
71771;SDS011;59606;52.138;5.424;2024-02-21T06:51:23;15.27;;;6.72;;
71771;SDS011;59606;52.138;5.424;2024-02-21T06:53:51;19.33;;;7.25;;
71771;SDS011;59606;52.138;5.424;2024-02-21T06:56:18;16.85;;;7.25;;
71771;SDS011;59606;52.138;5.424;2024-02-21T06:58:45;20.27;;;7.35;;
71771;SDS011;59606;52.138;5.424;2024-02-21T07:01:12;16.10;;;7.60;;
71771;SDS011;59606;52.138;5.424;2024-02-21T07:03:38;19.77;;;7.20;;
71771;SDS011;59606;52.138;5.424;2024-02-21T07:06:05;21.15;;;7.95;;
71771;SDS011;59606;52.138;5.424;2024-02-21T07:08:32;21.63;;;8.43;;
71771;SDS011;59606;52.138;5.424;2024-02-21T07:10:58;19.88;;;8.20;;
71771;SDS011;59606;52.138;5.424;2024-02-21T07:13:28;21.27;;;8.43;;
71771;SDS011;59606;52.138;5.424;2024-02-21T07:15:56;22.63;;;8.38;;
71771;SDS011;59606;52.138;5.424;2024-02-21T07:18:23;19.33;;;8.45;;
71771;SDS011;59606;52.138;5.424;2024-02-21T07:20:52;18.42;;;8.60;;
71771;SDS011;59606;52.138;5.424;2024-02-21T07:23:25;16.20;;;7.50;;
71771;SDS011;59606;52.138;5.424;2024-02-21T07:25:53;19.35;;;8.90;;
71771;SDS011;59606;52.138;5.424;2024-02-21T07:28:25;23.90;;;8.43;;
71771;SDS011;59606;52.138;5.424;2024-02-21T07:30:52;18.50;;;7.28;;
71771;SDS011;59606;52.138;5.424;2024-02-21T07:33:20;21.90;;;7.22;;
71771;SDS011;59606;52.138;5.424;2024-02-21T07:35:52;15.85;;;6.75;;
71771;SDS011;59606;52.138;5.424;2024-02-21T07:38:22;17.50;;;7.82;;
71771;SDS011;59606;52.138;5.424;2024-02-21T07:40:49;16.70;;;7.13;;
71771;SDS011;59606;52.138;5.424;2024-02-21T07:43:22;17.83;;;6.57;;
71771;SDS011;59606;52.138;5.424;2024-02-21T07:45:50;14.45;;;5.65;;
71771;SDS011;59606;52.138;5.424;2024-02-21T07:48:18;18.30;;;6.15;;
71771;SDS011;59606;52.138;5.424;2024-02-21T07:50:45;14.60;;;6.03;;
71771;SDS011;59606;52.138;5.424;2024-02-21T07:53:16;15.55;;;6.28;;
71771;SDS011;59606;52.138;5.424;2024-02-21T07:55:43;15.43;;;5.85;;
71771;SDS011;59606;52.138;5.424;2024-02-21T07:58:10;15.13;;;6.00;;
71771;SDS011;59606;52.138;5.424;2024-02-21T08:00:37;14.52;;;6.72;;
71771;SDS011;59606;52.138;5.424;2024-02-21T08:03:04;17.80;;;7.00;;
71771;SDS011;59606;52.138;5.424;2024-02-21T08:05:31;12.82;;;5.90;;
71771;SDS011;59606;52.138;5.424;2024-02-21T08:08:09;12.65;;;5.50;;
71771;SDS011;59606;52.138;5.424;2024-02-21T08:10:36;14.90;;;5.07;;
71771;SDS011;59606;52.138;5.424;2024-02-21T08:13:06;17.15;;;6.13;;
71771;SDS011;59606;52.138;5.424;2024-02-21T08:15:32;14.67;;;6.23;;
71771;SDS011;59606;52.138;5.424;2024-02-21T08:18:01;15.32;;;5.47;;
71771;SDS011;59606;52.138;5.424;2024-02-21T08:20:30;16.77;;;6.32;;
71771;SDS011;59606;52.138;5.424;2024-02-21T08:22:57;16.30;;;6.28;;
71771;SDS011;59606;52.138;5.424;2024-02-21T08:25:24;13.35;;;6.00;;
71771;SDS011;59606;52.138;5.424;2024-02-21T08:27:59;12.10;;;5.90;;
71771;SDS011;59606;52.138;5.424;2024-02-21T08:30:26;15.23;;;5.53;;
71771;SDS011;59606;52.138;5.424;2024-02-21T08:33:03;18.55;;;6.20;;
71771;SDS011;59606;52.138;5.424;2024-02-21T08:35:30;21.30;;;7.00;;
71771;SDS011;59606;52.138;5.424;2024-02-21T08:37:57;13.57;;;6.47;;
71771;SDS011;59606;52.138;5.424;2024-02-21T08:40:24;14.80;;;5.87;;
71771;SDS011;59606;52.138;5.424;2024-02-21T08:42:53;16.75;;;6.50;;
71771;SDS011;59606;52.138;5.424;2024-02-21T08:45:20;15.85;;;6.65;;
71771;SDS011;59606;52.138;5.424;2024-02-21T08:47:47;13.55;;;6.40;;
71771;SDS011;59606;52.138;5.424;2024-02-21T08:50:13;19.27;;;6.70;;
71771;SDS011;59606;52.138;5.424;2024-02-21T08:52:54;13.73;;;6.40;;
71771;SDS011;59606;52.138;5.424;2024-02-21T08:55:21;13.85;;;6.03;;
71771;SDS011;59606;52.138;5.424;2024-02-21T08:57:51;15.02;;;6.05;;
71771;SDS011;59606;52.138;5.424;2024-02-21T09:00:17;16.35;;;6.90;;
71771;SDS011;59606;52.138;5.424;2024-02-21T09:02:51;17.25;;;6.60;;
71771;SDS011;59606;52.138;5.424;2024-02-21T09:05:18;17.13;;;5.93;;
71771;SDS011;59606;52.138;5.424;2024-02-21T09:07:46;16.50;;;6.07;;
71771;SDS011;59606;52.138;5.424;2024-02-21T09:10:13;12.07;;;5.95;;
71771;SDS011;59606;52.138;5.424;2024-02-21T09:12:42;13.50;;;5.40;;
71771;SDS011;59606;52.138;5.424;2024-02-21T09:15:11;14.25;;;6.20;;
71771;SDS011;59606;52.138;5.424;2024-02-21T09:17:40;13.80;;;5.63;;
71771;SDS011;59606;52.138;5.424;2024-02-21T09:20:07;15.45;;;5.63;;
71771;SDS011;59606;52.138;5.424;2024-02-21T09:22:37;14.07;;;5.53;;
71771;SDS011;59606;52.138;5.424;2024-02-21T09:25:06;15.45;;;6.47;;
71771;SDS011;59606;52.138;5.424;2024-02-21T09:27:36;14.85;;;5.80;;
71771;SDS011;59606;52.138;5.424;2024-02-21T09:30:02;20.17;;;5.60;;
71771;SDS011;59606;52.138;5.424;2024-02-21T09:32:32;9.35;;;5.22;;
71771;SDS011;59606;52.138;5.424;2024-02-21T09:34:59;12.05;;;6.05;;
71771;SDS011;59606;52.138;5.424;2024-02-21T09:37:28;12.93;;;5.60;;
71771;SDS011;59606;52.138;5.424;2024-02-21T09:39:55;9.18;;;5.15;;
71771;SDS011;59606;52.138;5.424;2024-02-21T09:42:21;15.07;;;5.50;;
71771;SDS011;59606;52.138;5.424;2024-02-21T09:44:48;12.80;;;5.40;;
71771;SDS011;59606;52.138;5.424;2024-02-21T09:47:24;13.70;;;4.30;;
71771;SDS011;59606;52.138;5.424;2024-02-21T09:50:06;16.95;;;4.70;;
71771;SDS011;59606;52.138;5.424;2024-02-21T09:52:40;15.00;;;5.35;;
71771;SDS011;59606;52.138;5.424;2024-02-21T09:55:09;10.33;;;5.20;;
71771;SDS011;59606;52.138;5.424;2024-02-21T09:57:41;14.30;;;4.70;;
71771;SDS011;59606;52.138;5.424;2024-02-21T10:00:10;13.57;;;4.45;;
71771;SDS011;59606;52.138;5.424;2024-02-21T10:02:50;12.80;;;4.80;;
71771;SDS011;59606;52.138;5.424;2024-02-21T10:05:17;11.95;;;4.45;;
71771;SDS011;59606;52.138;5.424;2024-02-21T10:07:46;11.30;;;4.10;;
71771;SDS011;59606;52.138;5.424;2024-02-21T10:10:18;12.82;;;4.80;;
71771;SDS011;59606;52.138;5.424;2024-02-21T10:12:49;13.02;;;4.90;;
71771;SDS011;59606;52.138;5.424;2024-02-21T10:15:22;10.63;;;4.10;;
71771;SDS011;59606;52.138;5.424;2024-02-21T10:18:01;11.13;;;4.78;;
71771;SDS011;59606;52.138;5.424;2024-02-21T10:20:30;10.00;;;4.27;;
71771;SDS011;59606;52.138;5.424;2024-02-21T10:23:05;11.15;;;4.00;;
71771;SDS011;59606;52.138;5.424;2024-02-21T10:25:35;13.40;;;4.43;;
71771;SDS011;59606;52.138;5.424;2024-02-21T10:28:18;7.90;;;3.50;;
71771;SDS011;59606;52.138;5.424;2024-02-21T10:30:53;9.15;;;3.47;;
71771;SDS011;59606;52.138;5.424;2024-02-21T10:33:22;8.07;;;3.95;;
71771;SDS011;59606;52.138;5.424;2024-02-21T10:35:51;10.32;;;3.88;;
71771;SDS011;59606;52.138;5.424;2024-02-21T10:38:27;7.65;;;3.75;;
71771;SDS011;59606;52.138;5.424;2024-02-21T10:40:54;8.88;;;3.78;;
71771;SDS011;59606;52.138;5.424;2024-02-21T10:43:26;8.52;;;3.72;;
71771;SDS011;59606;52.138;5.424;2024-02-21T10:45:57;10.73;;;3.40;;
71771;SDS011;59606;52.138;5.424;2024-02-21T10:48:32;9.10;;;3.40;;
71771;SDS011;59606;52.138;5.424;2024-02-21T10:51:17;7.65;;;3.38;;
71771;SDS011;59606;52.138;5.424;2024-02-21T10:56:34;7.68;;;3.05;;
71771;SDS011;59606;52.138;5.424;2024-02-21T10:59:03;6.93;;;3.43;;
71771;SDS011;59606;52.138;5.424;2024-02-21T11:01:31;7.28;;;3.38;;
71771;SDS011;59606;52.138;5.424;2024-02-21T11:03:59;6.43;;;2.70;;
71771;SDS011;59606;52.138;5.424;2024-02-21T11:06:29;9.77;;;3.95;;
71771;SDS011;59606;52.138;5.424;2024-02-21T11:09:05;9.35;;;3.85;;
71771;SDS011;59606;52.138;5.424;2024-02-21T11:11:45;9.02;;;3.67;;
71771;SDS011;59606;52.138;5.424;2024-02-21T11:14:19;10.88;;;3.60;;
71771;SDS011;59606;52.138;5.424;2024-02-21T11:16:47;11.05;;;3.80;;
71771;SDS011;59606;52.138;5.424;2024-02-21T11:19:21;7.63;;;3.83;;
71771;SDS011;59606;52.138;5.424;2024-02-21T11:21:49;8.18;;;4.10;;
71771;SDS011;59606;52.138;5.424;2024-02-21T11:24:26;9.57;;;3.83;;
71771;SDS011;59606;52.138;5.424;2024-02-21T11:29:40;10.45;;;4.20;;
71771;SDS011;59606;52.138;5.424;2024-02-21T11:32:10;7.75;;;3.17;;
71771;SDS011;59606;52.138;5.424;2024-02-21T11:34:38;9.15;;;3.63;;
71771;SDS011;59606;52.138;5.424;2024-02-21T11:37:12;7.10;;;3.57;;
71771;SDS011;59606;52.138;5.424;2024-02-21T11:39:41;13.50;;;3.90;;
71771;SDS011;59606;52.138;5.424;2024-02-21T11:42:08;7.20;;;3.85;;
71771;SDS011;59606;52.138;5.424;2024-02-21T11:44:36;8.38;;;3.50;;
71771;SDS011;59606;52.138;5.424;2024-02-21T11:47:06;8.52;;;4.03;;
71771;SDS011;59606;52.138;5.424;2024-02-21T11:49:36;6.97;;;4.13;;
71771;SDS011;59606;52.138;5.424;2024-02-21T11:52:05;10.35;;;4.35;;
71771;SDS011;59606;52.138;5.424;2024-02-21T11:54:33;12.02;;;4.20;;
71771;SDS011;59606;52.138;5.424;2024-02-21T11:57:00;10.20;;;4.30;;
71771;SDS011;59606;52.138;5.424;2024-02-21T11:59:29;8.55;;;4.30;;
71771;SDS011;59606;52.138;5.424;2024-02-21T12:01:58;10.35;;;4.05;;
71771;SDS011;59606;52.138;5.424;2024-02-21T12:04:30;11.07;;;3.95;;
71771;SDS011;59606;52.138;5.424;2024-02-21T12:06:59;11.80;;;4.78;;
71771;SDS011;59606;52.138;5.424;2024-02-21T12:09:26;8.70;;;4.72;;
71771;SDS011;59606;52.138;5.424;2024-02-21T12:11:59;13.15;;;5.18;;
71771;SDS011;59606;52.138;5.424;2024-02-21T12:14:28;11.93;;;4.60;;
71771;SDS011;59606;52.138;5.424;2024-02-21T12:16:57;12.20;;;4.50;;
71771;SDS011;59606;52.138;5.424;2024-02-21T12:19:23;9.57;;;4.75;;
71771;SDS011;59606;52.138;5.424;2024-02-21T12:21:50;10.68;;;4.40;;
71771;SDS011;59606;52.138;5.424;2024-02-21T12:24:21;11.10;;;4.55;;
71771;SDS011;59606;52.138;5.424;2024-02-21T12:26:55;12.10;;;4.77;;
71771;SDS011;59606;52.138;5.424;2024-02-21T12:29:26;9.20;;;4.00;;
71771;SDS011;59606;52.138;5.424;2024-02-21T12:31:53;9.85;;;3.97;;
71771;SDS011;59606;52.138;5.424;2024-02-21T12:34:21;10.93;;;4.00;;
71771;SDS011;59606;52.138;5.424;2024-02-21T12:37:04;8.48;;;3.53;;
71771;SDS011;59606;52.138;5.424;2024-02-21T12:39:30;10.73;;;4.50;;
71771;SDS011;59606;52.138;5.424;2024-02-21T12:41:58;9.43;;;3.90;;
71771;SDS011;59606;52.138;5.424;2024-02-21T12:44:25;11.15;;;4.68;;
71771;SDS011;59606;52.138;5.424;2024-02-21T12:46:52;8.45;;;4.43;;
71771;SDS011;59606;52.138;5.424;2024-02-21T12:49:21;10.82;;;3.97;;
71771;SDS011;59606;52.138;5.424;2024-02-21T12:51:48;10.33;;;4.10;;
71771;SDS011;59606;52.138;5.424;2024-02-21T12:54:15;7.60;;;3.60;;
71771;SDS011;59606;52.138;5.424;2024-02-21T12:56:42;8.98;;;3.70;;
71771;SDS011;59606;52.138;5.424;2024-02-21T12:59:08;8.23;;;4.25;;
71771;SDS011;59606;52.138;5.424;2024-02-21T13:01:36;8.48;;;3.53;;
71771;SDS011;59606;52.138;5.424;2024-02-21T13:04:04;8.07;;;3.50;;
71771;SDS011;59606;52.138;5.424;2024-02-21T13:06:32;13.50;;;4.15;;
71771;SDS011;59606;52.138;5.424;2024-02-21T13:08:58;8.77;;;3.60;;
71771;SDS011;59606;52.138;5.424;2024-02-21T13:11:27;11.40;;;3.80;;
71771;SDS011;59606;52.138;5.424;2024-02-21T13:13:58;6.70;;;3.22;;
71771;SDS011;59606;52.138;5.424;2024-02-21T13:16:24;7.77;;;3.30;;
71771;SDS011;59606;52.138;5.424;2024-02-21T13:18:52;8.80;;;3.65;;
71771;SDS011;59606;52.138;5.424;2024-02-21T13:21:19;7.93;;;3.53;;
71771;SDS011;59606;52.138;5.424;2024-02-21T13:23:46;10.93;;;3.30;;
71771;SDS011;59606;52.138;5.424;2024-02-21T13:26:13;8.73;;;3.70;;
71771;SDS011;59606;52.138;5.424;2024-02-21T13:28:40;9.50;;;3.53;;
71771;SDS011;59606;52.138;5.424;2024-02-21T13:31:07;9.10;;;3.40;;
71771;SDS011;59606;52.138;5.424;2024-02-21T13:33:34;8.90;;;3.13;;
71771;SDS011;59606;52.138;5.424;2024-02-21T13:36:01;7.20;;;3.08;;
71771;SDS011;59606;52.138;5.424;2024-02-21T13:38:29;6.97;;;2.88;;
71771;SDS011;59606;52.138;5.424;2024-02-21T13:40:55;8.20;;;3.10;;
71771;SDS011;59606;52.138;5.424;2024-02-21T13:43:23;8.25;;;3.60;;
71771;SDS011;59606;52.138;5.424;2024-02-21T13:45:55;6.63;;;2.90;;
71771;SDS011;59606;52.138;5.424;2024-02-21T13:48:26;6.90;;;2.75;;
71771;SDS011;59606;52.138;5.424;2024-02-21T13:50:54;6.85;;;2.90;;
71771;SDS011;59606;52.138;5.424;2024-02-21T13:53:24;9.97;;;3.30;;
71771;SDS011;59606;52.138;5.424;2024-02-21T13:55:51;6.88;;;2.45;;
71771;SDS011;59606;52.138;5.424;2024-02-21T13:58:20;6.35;;;2.67;;
71771;SDS011;59606;52.138;5.424;2024-02-21T14:00:51;5.57;;;2.67;;
71771;SDS011;59606;52.138;5.424;2024-02-21T14:03:20;6.63;;;2.88;;
71771;SDS011;59606;52.138;5.424;2024-02-21T14:05:47;9.00;;;2.80;;
71771;SDS011;59606;52.138;5.424;2024-02-21T14:08:15;10.00;;;3.38;;
71771;SDS011;59606;52.138;5.424;2024-02-21T14:10:42;11.25;;;2.92;;
71771;SDS011;59606;52.138;5.424;2024-02-21T14:13:13;6.68;;;2.53;;
71771;SDS011;59606;52.138;5.424;2024-02-21T14:15:41;6.88;;;2.45;;
71771;SDS011;59606;52.138;5.424;2024-02-21T14:18:13;7.83;;;1.90;;
71771;SDS011;59606;52.138;5.424;2024-02-21T14:20:42;7.20;;;2.47;;
71771;SDS011;59606;52.138;5.424;2024-02-21T14:23:12;5.63;;;2.45;;
71771;SDS011;59606;52.138;5.424;2024-02-21T14:25:40;11.15;;;2.60;;
71771;SDS011;59606;52.138;5.424;2024-02-21T14:28:09;9.07;;;2.17;;
71771;SDS011;59606;52.138;5.424;2024-02-21T14:30:37;7.63;;;2.60;;
71771;SDS011;59606;52.138;5.424;2024-02-21T14:33:06;9.70;;;2.75;;
71771;SDS011;59606;52.138;5.424;2024-02-21T14:35:34;9.05;;;2.42;;
71771;SDS011;59606;52.138;5.424;2024-02-21T14:38:06;5.93;;;2.80;;
71771;SDS011;59606;52.138;5.424;2024-02-21T14:40:33;7.45;;;2.10;;
71771;SDS011;59606;52.138;5.424;2024-02-21T14:43:03;5.30;;;2.17;;
71771;SDS011;59606;52.138;5.424;2024-02-21T14:45:31;7.65;;;2.35;;
71771;SDS011;59606;52.138;5.424;2024-02-21T14:47:59;7.55;;;2.45;;
71771;SDS011;59606;52.138;5.424;2024-02-21T14:50:26;9.98;;;2.78;;